Flight Track Log - Related Links

Times and Time Zones

All times are in EDT time to prevent confusion due to time zone crossing. See the USC105 flight status page for this flight to view local times or setup timezone preferences in your user account.

Time Position Orientation Groundspeed Altitude Reporting Facility
EDT Latitude Longitude Course Direction KTS MPH feet Rate Location/Type
Thu 05:26:09 AM 41.8833 -88.2333 151° Southeast 120 138 2,300  Level Chicago TRACON
Thu 05:27:14 AM 41.8497 -88.2089 152° Southeast 113 130 3,400 1,000 Climbing Chicago Center
Thu 05:28:15 AM 41.8233 -88.1864 148° Southeast 114 131 4,400 1,091 Climbing Chicago Center
Thu 05:29:15 AM 41.8036 -88.1500 126° Southeast 119 137 5,600 1,100 Climbing Chicago Center
Thu 05:30:15 AM 41.7836 -88.1150 127° Southeast 116 133 6,600 694 Climbing Chicago Center
Thu 05:31:00 AM 41.9333 -87.9561 151° Southeast  Level Estimated
Thu 05:31:16 AM 41.7869 -88.0600 85° East 162 186 7,000  Level Chicago Center
Thu 05:32:16 AM 41.7947 -87.9972 81° East 167 192 7,000  Level Chicago Center
Thu 05:33:17 AM 41.8033 -87.9331 80° East 173 199 7,000 -50 Level Chicago Center
Thu 05:34:16 AM 41.8167 -87.8500 78° East 181 208 6,900  Descending Chicago TRACON
Thu 05:35:16 AM 41.8167 -87.7833 90° East 189 217 7,000 50 Climbing Chicago TRACON
Thu 05:36:16 AM 41.8333 -87.7167 71° East 187 215 7,000  Level Chicago TRACON
Thu 05:37:28 AM 41.8333 -87.6333 90° East 188 216 7,000  Level Chicago TRACON
Thu 05:38:19 AM 41.8428 -87.5942 72° East 186 214 7,000  Level Chicago Center
Thu 05:39:19 AM 41.8511 -87.5264 81° East 185 213 7,000  Level Chicago Center
Thu 05:40:20 AM 41.8608 -87.4442 81° East 186 214 7,000  Level Chicago Center
Thu 05:41:20 AM 41.8692 -87.3758 81° East 186 214 7,000 -248 Level Chicago Center
Thu 05:42:21 AM 41.8767 -87.3058 82° East 189 217 6,500 -446 Descending Chicago Center
Thu 05:43:21 AM 41.8853 -87.2314 81° East 200 230 6,100 -446 Descending Chicago Center
Thu 05:44:22 AM 41.8942 -87.1575 81° East 202 232 5,600 -545 Descending Chicago Center
Thu 05:45:22 AM 41.9017 -87.0819 82° East 204 235 5,000 -347 Descending Chicago Center
Thu 05:46:23 AM 41.9106 -87.0125 80° East 196 226 4,900 -50 Descending Chicago Center
Thu 05:47:23 AM 41.9172 -86.9439 83° East 189 217 4,900  Level Chicago Center
Thu 05:48:23 AM 41.9231 -86.8764 83° East 184 212 4,900  Level Chicago Center
Thu 05:49:24 AM 41.9311 -86.8092 81° East 183 211 4,900  Level Chicago Center
Thu 05:50:24 AM 41.9389 -86.7425 81° East 182 209 4,900  Level Chicago Center
Thu 05:51:25 AM 41.9453 -86.6728 83° East 182 209 4,900  Level Chicago Center
Thu 05:52:25 AM 41.9522 -86.6053 82° East 182 209 4,900  Level Chicago Center
Thu 05:53:26 AM 41.9600 -86.5381 81° East 183 211 4,900 50 Level Chicago Center
Thu 05:54:26 AM 41.9672 -86.4700 82° East 184 212 5,000  Climbing Chicago Center
Thu 05:55:26 AM 41.9742 -86.4022 82° East 183 211 4,900 -50 Descending Chicago Center
Thu 05:56:27 AM 41.9825 -86.3353 80° East 182 209 4,900  Level Chicago Center
Thu 05:57:27 AM 41.9886 -86.2678 83° East 183 211 4,900  Level Chicago Center
Thu 05:58:28 AM 41.9956 -86.1994 82° East 185 213 4,900  Level Chicago Center
Thu 05:59:29 AM 42.0025 -86.1322 82° East 182 209 4,900  Level Chicago Center
Thu 06:00:29 AM 42.0097 -86.0653 82° East 182 209 4,900  Level Chicago Center
Thu 06:01:29 AM 42.0164 -85.9981 82° East 181 208 4,900  Level Chicago Center
Thu 06:02:30 AM 42.0231 -85.9314 82° East 181 208 4,900  Level Chicago Center
Thu 06:03:30 AM 42.0297 -85.8656 82° East 179 206 4,900  Level Chicago Center
Thu 06:04:31 AM 42.0364 -85.7986 82° East 180 207 4,900  Level Chicago Center
Thu 06:05:31 AM 42.0425 -85.7322 83° East 179 206 4,900  Level Chicago Center
Thu 06:06:31 AM 42.0492 -85.6667 82° East 178 205 4,900  Level Chicago Center
Thu 06:07:32 AM 42.0561 -85.6011 82° East 177 204 4,900  Level Chicago Center
Thu 06:08:32 AM 42.0633 -85.5339 82° East 179 206 4,900  Level Chicago Center
Thu 06:09:33 AM 42.0708 -85.4664 81° East 181 208 4,900  Level Chicago Center
Thu 06:10:33 AM 42.0761 -85.3992 84° East 181 208 4,900  Level Chicago Center
Thu 06:11:34 AM 42.0831 -85.3325 82° East 180 207 4,900  Level Chicago Center
Thu 06:12:34 AM 42.0886 -85.2653 84° East 180 207 4,900  Level Chicago Center
Thu 06:13:35 AM 42.0953 -85.1986 82° East 180 207 4,900  Level Chicago Center
Thu 06:14:35 AM 42.1022 -85.1322 82° East 179 206 4,900  Level Chicago Center
Thu 06:15:35 AM 42.1086 -85.0664 83° East 179 206 4,900  Level Chicago Center
Thu 06:16:36 AM 42.1158 -84.9856 83° East 180 207 4,900  Level Chicago Center
Thu 06:17:36 AM 42.1219 -84.9200 83° East 178 205 4,900  Level Chicago Center
Thu 06:18:37 AM 42.1278 -84.8542 83° East 177 204 4,900  Level Chicago Center
Thu 06:19:37 AM 42.1344 -84.7881 82° East 178 205 4,900  Level Chicago Center
Thu 06:20:38 AM 42.1394 -84.7214 84° East 179 206 4,900  Level Chicago Center
Thu 06:21:38 AM 42.1458 -84.6544 83° East 179 206 4,900  Level Chicago Center
Thu 06:22:39 AM 42.1517 -84.5900 83° East 176 203 4,900  Level Chicago Center
Thu 06:23:39 AM 42.1581 -84.5192 83° East 179 206 4,900  Level Chicago Center
Thu 06:24:40 AM 42.1639 -84.4539 83° East 178 205 4,900 74 Level Chicago Center
Thu 06:25:00 AM 42.1644 -84.4325 88° East 173 199 5,000 74 Climbing Cleveland Center
Thu 06:26:01 AM 42.1706 -84.3683 83° East 172 198 5,000  Level Cleveland Center
Thu 06:27:02 AM 42.1747 -84.3042 85° East 173 199 5,000  Level Cleveland Center
Thu 06:27:56 AM 42.1808 -84.2486 82° East 173 199 5,000  Level Cleveland Center
Thu 06:28:57 AM 42.1869 -84.1844 83° East 174 200 5,000 -41 Level Cleveland Center
Thu 06:30:22 AM 42.1942 -84.0894 84° East 174 200 4,900 -247 Descending Cleveland Center
Thu 06:31:23 AM 42.2003 -84.0225 83° East 183 211 4,400 -516 Descending Cleveland Center
Thu 06:32:30 AM 42.2044 -83.9497 86° East 175 201 3,800 -661 Descending Cleveland Center
Thu 06:33:12 AM 42.2100 -83.9025 81° East 185 213 3,200 -495 Descending Cleveland Center
Thu 06:34:07 AM 42.2139 -83.8411 85° East 177 204 3,000 -155 Descending Cleveland Center
Thu 06:35:08 AM 42.2219 -83.7769 80° East 167 192 2,900 -370 Descending Cleveland Center
Thu 06:36:33 AM 42.2350 -83.6822 79° East 184 212 2,100 -475 Descending Cleveland Center
Thu 06:37:27 AM 42.2428 -83.6264 79° East 165 190 1,800 -385 Descending Cleveland Center
Thu 06:38:22 AM 42.2439 -83.5789 88° East 127 146 1,400 -436 Descending Cleveland Center

Login

Don't have an account? Register now (free) for customized features, flight alerts, and more!